createdAt,value
2017-11-27T00:00:31.408Z,94.20
2017-11-27T00:03:04.827Z,94.30
2017-11-27T00:05:38.653Z,94.30
2017-11-27T00:08:12.457Z,94.50
2017-11-27T00:10:45.635Z,94.50
2017-11-27T00:13:18.697Z,94.00
2017-11-27T00:15:51.768Z,94.40
2017-11-27T00:18:26.514Z,94.10
2017-11-27T00:20:59.575Z,94.10
2017-11-27T00:23:32.684Z,94.10
2017-11-27T00:26:06.437Z,93.70
2017-11-27T00:28:39.353Z,93.70
2017-11-27T00:31:12.247Z,93.90
2017-11-27T00:33:46.074Z,93.60
2017-11-27T00:36:20.457Z,93.90
2017-11-27T00:38:54.130Z,93.70
2017-11-27T00:41:27.901Z,93.30
2017-11-27T00:44:01.801Z,93.70
2017-11-27T00:46:35.819Z,93.70
2017-11-27T00:49:08.777Z,93.70
2017-11-27T00:51:41.852Z,93.70
2017-11-27T00:54:14.877Z,93.60
2017-11-27T00:56:47.876Z,93.90
2017-11-27T00:59:20.859Z,93.50
2017-11-27T01:01:54.784Z,93.10
2017-11-27T01:04:28.276Z,93.10
2017-11-27T01:07:01.363Z,93.50
2017-11-27T01:09:34.758Z,93.50
2017-11-27T01:12:07.814Z,93.40
2017-11-27T01:14:40.623Z,93.50
2017-11-27T01:17:14.394Z,93.60
2017-11-27T01:19:47.366Z,93.60
2017-11-27T01:22:21.442Z,92.90
2017-11-27T01:24:55.194Z,93.10
2017-11-27T01:27:28.226Z,93.20
2017-11-27T01:30:02.779Z,93.40
2017-11-27T01:32:36.014Z,93.50
2017-11-27T01:35:09.805Z,93.40
2017-11-27T01:37:43.650Z,93.20
2017-11-27T01:40:16.574Z,93.20
2017-11-27T01:42:49.414Z,93.60
2017-11-27T01:45:22.433Z,93.50
2017-11-27T01:47:55.595Z,93.20
2017-11-27T01:50:28.454Z,93.70
2017-11-27T01:53:02.350Z,93.70
2017-11-27T01:55:36.777Z,93.80
2017-11-27T01:58:09.906Z,93.80
2017-11-27T02:00:42.633Z,93.60
2017-11-27T02:03:15.675Z,94.00
2017-11-27T02:05:49.160Z,93.70
2017-11-27T02:08:23.042Z,93.60
2017-11-27T02:10:55.965Z,93.60
2017-11-27T02:13:29.084Z,93.70
2017-11-27T02:16:02.031Z,93.80
2017-11-27T02:18:35.818Z,93.90
2017-11-27T02:21:10.189Z,94.00
2017-11-27T02:23:43.998Z,94.10
2017-11-27T02:26:17.713Z,94.30
2017-11-27T02:28:50.834Z,94.20
2017-11-27T02:31:24.524Z,94.10
2017-11-27T02:33:58.565Z,94.10
2017-11-27T02:36:32.383Z,93.80
2017-11-27T02:39:06.521Z,93.80
2017-11-27T02:41:39.485Z,93.80
2017-11-27T02:44:12.676Z,93.50
2017-11-27T02:46:46.537Z,93.90
2017-11-27T02:49:19.564Z,94.00
2017-11-27T02:51:53.454Z,94.00
2017-11-27T02:54:26.592Z,94.10
2017-11-27T02:56:59.555Z,94.00
2017-11-27T02:59:33.533Z,94.30
2017-11-27T03:02:07.153Z,94.30
2017-11-27T03:04:40.093Z,94.60
2017-11-27T03:07:13.041Z,94.40
2017-11-27T03:09:45.949Z,94.50
2017-11-27T03:12:18.903Z,94.50
2017-11-27T03:14:52.007Z,94.50
2017-11-27T03:17:24.907Z,94.30
2017-11-27T03:19:57.934Z,94.30
2017-11-27T03:22:30.920Z,94.40
2017-11-27T03:25:04.039Z,94.40
2017-11-27T03:27:38.489Z,94.50
2017-11-27T03:30:11.607Z,94.40
2017-11-27T03:32:44.648Z,94.40
2017-11-27T03:35:17.851Z,94.50
2017-11-27T03:37:50.757Z,94.50
2017-11-27T03:40:24.779Z,94.70
2017-11-27T03:42:57.708Z,94.70
2017-11-27T03:45:32.140Z,94.80
2017-11-27T03:48:05.307Z,94.70
2017-11-27T03:50:38.290Z,94.80
2017-11-27T03:53:11.772Z,94.90
2017-11-27T03:55:45.049Z,95.00
2017-11-27T03:58:18.062Z,95.10
2017-11-27T04:00:51.430Z,95.20
2017-11-27T04:03:24.362Z,95.20
2017-11-27T04:05:58.218Z,95.20
2017-11-27T04:08:31.217Z,95.20
2017-11-27T04:11:05.152Z,95.10
2017-11-27T04:13:38.572Z,94.90
2017-11-27T04:16:11.697Z,95.00
2017-11-27T04:18:44.640Z,95.00
2017-11-27T04:21:19.218Z,95.00
2017-11-27T04:23:53.738Z,95.00
2017-11-27T04:26:28.058Z,95.00
2017-11-27T04:29:01.049Z,95.00
2017-11-27T04:31:33.979Z,94.90
2017-11-27T04:34:07.799Z,94.80
2017-11-27T04:36:40.808Z,94.80
2017-11-27T04:39:14.618Z,94.70
2017-11-27T04:41:48.562Z,94.80
2017-11-27T04:44:22.358Z,94.80
2017-11-27T04:46:55.472Z,94.80
2017-11-27T04:49:29.293Z,94.70
2017-11-27T04:52:04.193Z,94.70
2017-11-27T04:54:37.253Z,94.60
2017-11-27T04:57:10.183Z,94.70
2017-11-27T04:59:43.225Z,94.50
2017-11-27T05:02:16.291Z,94.60
2017-11-27T05:04:49.389Z,94.40
2017-11-27T05:07:22.427Z,94.30
2017-11-27T05:09:55.218Z,94.40
2017-11-27T05:12:28.205Z,94.40
2017-11-27T05:15:01.233Z,94.40
2017-11-27T05:17:34.099Z,94.50
2017-11-27T05:20:07.006Z,94.40
2017-11-27T05:22:40.197Z,94.60
2017-11-27T05:25:12.758Z,94.60
2017-11-27T05:27:45.298Z,94.50
2017-11-27T05:30:18.574Z,94.20
2017-11-27T05:32:51.101Z,94.20
2017-11-27T05:35:23.601Z,94.50
2017-11-27T05:37:56.141Z,94.50
2017-11-27T05:40:28.655Z,94.30
2017-11-27T05:43:01.194Z,94.80
2017-11-27T05:45:34.686Z,94.30
2017-11-27T05:48:07.271Z,94.00
2017-11-27T05:50:39.993Z,93.80
2017-11-27T05:53:12.526Z,94.10
2017-11-27T05:55:45.040Z,94.50
2017-11-27T05:58:17.569Z,94.20
2017-11-27T06:00:51.233Z,94.40
2017-11-27T06:03:24.338Z,94.30
2017-11-27T06:05:58.105Z,94.40
2017-11-27T06:08:31.326Z,94.40
2017-11-27T06:11:04.376Z,94.40
2017-11-27T06:13:37.461Z,94.20
2017-11-27T06:16:10.436Z,94.40
2017-11-27T06:18:44.545Z,94.40
2017-11-27T06:21:17.568Z,94.40
2017-11-27T06:23:50.404Z,94.10
2017-11-27T06:26:23.305Z,94.10
2017-11-27T06:28:57.213Z,94.40
2017-11-27T06:31:30.062Z,94.40
2017-11-27T06:34:03.789Z,94.10
2017-11-27T06:36:37.506Z,94.50
2017-11-27T06:39:11.373Z,94.40
2017-11-27T06:41:44.487Z,94.30
2017-11-27T06:44:17.188Z,94.50
2017-11-27T06:46:50.041Z,94.60
2017-11-27T06:49:23.813Z,94.40
2017-11-27T06:51:56.657Z,94.40
2017-11-27T06:54:29.669Z,94.40
2017-11-27T06:57:03.314Z,94.30
2017-11-27T06:59:36.331Z,94.50
2017-11-27T07:02:09.366Z,94.30
2017-11-27T07:04:43.125Z,94.20
2017-11-27T07:07:16.803Z,94.10
2017-11-27T07:09:49.865Z,94.10
2017-11-27T07:12:22.783Z,93.90
2017-11-27T07:14:55.922Z,94.00
2017-11-27T07:17:29.638Z,93.90
2017-11-27T07:20:02.630Z,93.90
2017-11-27T07:22:35.462Z,94.00
2017-11-27T07:25:09.110Z,94.00
2017-11-27T07:27:43.832Z,94.10
2017-11-27T07:30:16.516Z,94.00
2017-11-27T07:32:49.222Z,93.90
2017-11-27T07:35:22.218Z,94.00
2017-11-27T07:38:00.741Z,94.00
2017-11-27T07:40:34.408Z,94.10
2017-11-27T07:43:07.307Z,93.90
2017-11-27T07:45:40.428Z,94.20
2017-11-27T07:48:13.412Z,94.30
2017-11-27T07:50:46.108Z,94.00
2017-11-27T07:53:18.749Z,94.30
2017-11-27T07:55:51.257Z,94.10
2017-11-27T07:58:23.791Z,93.90
2017-11-27T08:00:56.405Z,93.90
2017-11-27T08:03:29.138Z,93.80
2017-11-27T08:06:01.678Z,93.50
2017-11-27T08:08:34.273Z,93.70
2017-11-27T08:11:06.813Z,93.60
2017-11-27T08:13:39.348Z,93.60
2017-11-27T08:16:12.638Z,93.60
2017-11-27T08:18:45.202Z,93.60
2017-11-27T08:21:17.728Z,93.70
2017-11-27T08:23:50.295Z,93.00
2017-11-27T08:26:22.817Z,93.90
2017-11-27T08:28:55.386Z,93.60
2017-11-27T08:31:28.786Z,93.40
2017-11-27T08:34:02.154Z,93.10
2017-11-27T08:36:34.663Z,93.10
2017-11-27T08:39:07.223Z,93.30
2017-11-27T08:41:40.507Z,93.20
2017-11-27T08:44:13.063Z,93.20
2017-11-27T08:46:45.606Z,93.20
2017-11-27T08:49:18.142Z,93.20
2017-11-27T08:51:51.425Z,92.60
2017-11-27T08:54:23.998Z,92.50
2017-11-27T08:56:56.517Z,92.70
2017-11-27T08:59:29.070Z,92.50
2017-11-27T09:02:02.393Z,91.90
2017-11-27T09:04:35.692Z,91.70
2017-11-27T09:07:08.222Z,91.70
2017-11-27T09:09:41.520Z,92.20
2017-11-27T09:12:14.035Z,92.20
2017-11-27T09:14:47.348Z,92.30
2017-11-27T09:17:20.667Z,91.70
2017-11-27T09:19:53.302Z,91.70
2017-11-27T09:22:25.854Z,91.40
2017-11-27T09:24:59.141Z,91.10
2017-11-27T09:27:31.672Z,91.10
2017-11-27T09:30:04.280Z,91.10
2017-11-27T09:32:36.832Z,91.70
2017-11-27T09:35:09.429Z,90.70
2017-11-27T09:37:41.963Z,91.10
2017-11-27T09:40:14.507Z,90.70
2017-11-27T09:42:47.030Z,91.40
2017-11-27T09:45:19.585Z,91.00
2017-11-27T09:47:52.093Z,91.10
2017-11-27T09:50:24.749Z,91.30
2017-11-27T09:52:57.362Z,91.40
2017-11-27T09:55:29.921Z,91.20
2017-11-27T09:58:02.702Z,91.50
2017-11-27T10:00:36.843Z,92.00
2017-11-27T10:03:09.359Z,92.00
2017-11-27T10:05:41.914Z,92.50
2017-11-27T10:08:14.427Z,91.90
2017-11-27T10:10:47.027Z,92.80
2017-11-27T10:13:19.555Z,92.60
2017-11-27T10:15:52.102Z,93.30
2017-11-27T10:18:25.408Z,93.40
2017-11-27T10:20:58.718Z,93.80
2017-11-27T10:23:31.231Z,93.80
2017-11-27T10:26:04.566Z,94.00
2017-11-27T10:28:37.829Z,94.00
2017-11-27T10:31:10.368Z,93.90
2017-11-27T10:33:42.874Z,94.50
2017-11-27T10:36:16.182Z,95.00
2017-11-27T10:38:48.700Z,94.70
2017-11-27T10:41:21.250Z,94.60
2017-11-27T10:43:53.758Z,95.00
2017-11-27T10:46:26.724Z,94.70
2017-11-27T10:49:00.011Z,94.70
2017-11-27T10:51:32.575Z,94.70
2017-11-27T10:54:05.095Z,94.80
2017-11-27T10:56:37.665Z,95.30
2017-11-27T10:59:10.937Z,95.30
2017-11-27T11:01:43.538Z,95.40
2017-11-27T11:04:16.041Z,95.20
2017-11-27T11:06:49.849Z,95.50
2017-11-27T11:09:22.852Z,95.50
2017-11-27T11:11:56.769Z,95.70
2017-11-27T11:14:29.870Z,95.80
2017-11-27T11:17:02.812Z,95.20
2017-11-27T11:19:35.927Z,95.50
2017-11-27T11:22:08.864Z,95.70
2017-11-27T11:24:41.837Z,95.80
2017-11-27T11:27:15.638Z,95.80
2017-11-27T11:29:48.789Z,95.80
2017-11-27T11:32:22.010Z,95.90
2017-11-27T11:34:54.941Z,95.50
2017-11-27T11:37:27.969Z,95.70
2017-11-27T11:40:00.969Z,96.10
2017-11-27T11:42:34.169Z,96.10
2017-11-27T11:45:07.047Z,96.10
2017-11-27T11:47:40.183Z,96.40
2017-11-27T11:50:13.148Z,96.30
2017-11-27T11:52:46.904Z,96.20
2017-11-27T11:55:20.149Z,96.20
2017-11-27T11:57:53.904Z,96.10
2017-11-27T12:00:26.975Z,96.30
2017-11-27T12:02:59.847Z,96.20
2017-11-27T12:05:32.901Z,96.30
2017-11-27T12:08:06.013Z,96.30
2017-11-27T12:10:39.852Z,96.40
2017-11-27T12:13:13.091Z,96.40
2017-11-27T12:15:46.879Z,96.40
2017-11-27T12:18:20.731Z,96.40
2017-11-27T12:20:53.732Z,96.50
2017-11-27T12:23:26.762Z,96.40
2017-11-27T12:25:59.786Z,96.40
2017-11-27T12:28:32.737Z,96.40
2017-11-27T12:31:06.574Z,96.40
2017-11-27T12:33:39.557Z,96.40
2017-11-27T12:36:12.572Z,96.50
2017-11-27T12:38:46.376Z,96.20
2017-11-27T12:41:20.147Z,96.20
2017-11-27T12:43:53.218Z,96.30
2017-11-27T12:46:26.211Z,96.70
2017-11-27T12:49:00.193Z,96.10
2017-11-27T12:51:33.151Z,96.10
2017-11-27T12:54:06.145Z,96.60
2017-11-27T12:56:39.817Z,96.60
2017-11-27T12:59:12.543Z,96.50
2017-11-27T13:01:45.082Z,96.60
2017-11-27T13:04:17.623Z,96.70
2017-11-27T13:06:51.422Z,96.70
2017-11-27T13:09:24.237Z,96.70
2017-11-27T13:11:57.260Z,96.70
2017-11-27T13:14:30.200Z,96.70
2017-11-27T13:17:03.072Z,96.70
2017-11-27T13:19:36.098Z,96.70
2017-11-27T13:22:08.970Z,96.80
2017-11-27T13:24:42.033Z,96.80
2017-11-27T13:27:15.091Z,96.80
2017-11-27T13:29:47.980Z,96.90
2017-11-27T13:32:21.076Z,97.00
2017-11-27T13:34:53.951Z,97.00
2017-11-27T13:37:26.971Z,96.90
2017-11-27T13:40:00.779Z,96.90
2017-11-27T13:42:34.419Z,96.90
2017-11-27T13:45:07.376Z,97.00
2017-11-27T13:47:40.265Z,97.00
2017-11-27T13:50:13.130Z,97.00
2017-11-27T13:52:46.181Z,97.00
2017-11-27T13:55:19.071Z,97.00
2017-11-27T13:57:52.005Z,97.10
2017-11-27T14:00:24.898Z,97.00
2017-11-27T14:02:59.540Z,97.00
2017-11-27T14:05:32.498Z,97.00
2017-11-27T14:08:05.583Z,97.00
2017-11-27T14:10:38.635Z,97.00
2017-11-27T14:13:12.799Z,97.10
2017-11-27T14:15:45.890Z,97.00
2017-11-27T14:18:18.938Z,96.90
2017-11-27T14:20:51.795Z,96.90
2017-11-27T14:23:25.611Z,96.90
2017-11-27T14:25:58.510Z,96.90
2017-11-27T14:28:31.595Z,97.00
2017-11-27T14:31:05.331Z,97.00
2017-11-27T14:33:39.295Z,97.00
2017-11-27T14:36:12.116Z,96.90
2017-11-27T14:38:45.332Z,96.90
2017-11-27T14:41:18.256Z,97.00
2017-11-27T14:43:52.365Z,97.00
2017-11-27T14:46:25.623Z,97.30
2017-11-27T14:48:58.858Z,97.10
2017-11-27T14:51:32.015Z,97.00
2017-11-27T14:54:06.234Z,97.10
2017-11-27T14:56:40.065Z,97.10
2017-11-27T14:59:13.222Z,97.40
2017-11-27T15:01:47.964Z,97.10
2017-11-27T15:04:21.194Z,97.20
2017-11-27T15:06:54.449Z,97.20
2017-11-27T15:09:27.655Z,97.20
2017-11-27T15:12:00.647Z,97.20
2017-11-27T15:14:33.679Z,97.10
2017-11-27T15:17:06.833Z,97.00
2017-11-27T15:19:40.911Z,97.20
2017-11-27T15:22:13.958Z,97.20
2017-11-27T15:24:47.725Z,97.50
2017-11-27T15:27:22.391Z,97.20
2017-11-27T15:29:55.516Z,97.20
2017-11-27T15:32:28.662Z,97.30
2017-11-27T15:35:01.788Z,97.30
2017-11-27T15:37:34.898Z,97.30
2017-11-27T15:40:08.533Z,97.30
2017-11-27T15:42:42.494Z,97.30
2017-11-27T15:45:15.034Z,97.30
2017-11-27T15:47:48.139Z,97.40
2017-11-27T15:50:21.337Z,97.40
2017-11-27T15:52:54.326Z,97.40
2017-11-27T15:55:27.625Z,97.40
2017-11-27T15:58:00.647Z,97.50
2017-11-27T16:00:33.893Z,97.40
2017-11-27T16:03:07.692Z,97.50
2017-11-27T16:05:40.828Z,97.50
2017-11-27T16:08:13.870Z,97.50
2017-11-27T16:10:47.559Z,97.50
2017-11-27T16:13:20.692Z,97.50
2017-11-27T16:15:53.938Z,97.50
2017-11-27T16:18:27.130Z,97.50
2017-11-27T16:21:01.083Z,97.60
2017-11-27T16:23:34.702Z,97.60
2017-11-27T16:26:08.692Z,97.60
2017-11-27T16:28:42.004Z,97.60
2017-11-27T16:31:15.020Z,97.60
2017-11-27T16:33:48.155Z,97.60
2017-11-27T16:36:21.403Z,97.60
2017-11-27T16:38:54.452Z,97.70
2017-11-27T16:41:27.479Z,97.70
2017-11-27T16:44:00.502Z,97.80
2017-11-27T16:46:33.528Z,97.80
2017-11-27T16:49:06.665Z,97.80
2017-11-27T16:51:40.135Z,97.90
2017-11-27T16:54:13.869Z,97.90
2017-11-27T16:56:47.165Z,97.80
2017-11-27T16:59:21.098Z,97.90
2017-11-27T17:01:54.161Z,97.90
2017-11-27T17:04:27.788Z,97.90
2017-11-27T17:07:01.114Z,97.90
2017-11-27T17:09:34.164Z,97.90
2017-11-27T17:12:07.294Z,97.90
2017-11-27T17:14:41.187Z,97.90
2017-11-27T17:17:15.259Z,97.90
2017-11-27T17:19:48.398Z,98.00
2017-11-27T17:22:21.808Z,98.00
2017-11-27T17:24:54.745Z,98.00
2017-11-27T17:27:28.594Z,98.10
2017-11-27T17:30:01.451Z,98.10
2017-11-27T17:32:34.610Z,98.10
2017-11-27T17:35:08.410Z,98.10
2017-11-27T17:37:41.631Z,98.10
2017-11-27T17:40:15.633Z,98.10
2017-11-27T17:42:49.573Z,98.20
2017-11-27T17:45:23.447Z,98.10
2017-11-27T17:47:56.893Z,98.10
2017-11-27T17:50:29.922Z,98.10
2017-11-27T17:53:03.012Z,98.10
2017-11-27T17:55:36.062Z,98.10
2017-11-27T17:58:09.265Z,98.20
2017-11-27T18:00:42.850Z,98.20
2017-11-27T18:03:16.541Z,98.20
2017-11-27T18:05:50.140Z,98.20
2017-11-27T18:08:23.290Z,98.20
2017-11-27T18:10:56.240Z,98.20
2017-11-27T18:13:29.502Z,98.20
2017-11-27T18:16:03.308Z,98.20
2017-11-27T18:18:37.130Z,98.20
2017-11-27T18:21:10.106Z,98.20
2017-11-27T18:23:43.188Z,98.20
2017-11-27T18:26:16.270Z,98.20
2017-11-27T18:28:49.646Z,98.20
2017-11-27T18:31:23.504Z,98.20
2017-11-27T18:33:56.635Z,98.30
2017-11-27T18:36:29.804Z,98.20
2017-11-27T18:39:03.698Z,98.30
2017-11-27T18:41:36.817Z,98.30
2017-11-27T18:44:10.652Z,98.20
2017-11-27T18:46:43.593Z,98.20
2017-11-27T18:49:16.685Z,98.20
2017-11-27T18:51:49.717Z,98.20
2017-11-27T18:54:22.842Z,98.30
2017-11-27T18:56:55.916Z,98.30
2017-11-27T18:59:29.262Z,98.30
2017-11-27T19:02:02.364Z,98.40
2017-11-27T19:04:35.402Z,98.40
2017-11-27T19:07:08.331Z,98.40
2017-11-27T19:09:41.597Z,98.30
2017-11-27T19:12:14.576Z,98.30
2017-11-27T19:14:48.519Z,98.30
2017-11-27T19:17:21.502Z,98.40
2017-11-27T19:19:54.067Z,98.40
2017-11-27T19:22:27.354Z,98.30
2017-11-27T19:24:59.920Z,98.30
2017-11-27T19:27:32.439Z,98.40
2017-11-27T19:30:04.987Z,98.40
2017-11-27T19:32:38.408Z,98.40
2017-11-27T19:35:11.061Z,98.40
2017-11-27T19:37:43.565Z,98.40
2017-11-27T19:40:16.117Z,98.40
2017-11-27T19:42:49.408Z,98.40
2017-11-27T19:45:22.011Z,98.40
2017-11-27T19:47:54.552Z,98.40
2017-11-27T19:50:27.879Z,98.50
2017-11-27T19:53:01.156Z,98.40
2017-11-27T19:55:33.750Z,98.40
2017-11-27T19:58:06.328Z,98.40
2017-11-27T20:00:38.919Z,98.40
2017-11-27T20:03:11.425Z,98.40
2017-11-27T20:05:43.981Z,98.40
2017-11-27T20:08:16.501Z,98.40
2017-11-27T20:10:49.046Z,98.40
2017-11-27T20:13:21.554Z,98.40
2017-11-27T20:15:54.174Z,98.40
2017-11-27T20:18:26.682Z,98.40
2017-11-27T20:20:59.210Z,98.40
2017-11-27T20:23:32.495Z,98.50
2017-11-27T20:26:05.802Z,98.40
2017-11-27T20:28:38.320Z,98.40
2017-11-27T20:31:11.055Z,98.40
2017-11-27T20:33:43.720Z,98.40
2017-11-27T20:36:16.508Z,98.40
2017-11-27T20:38:49.013Z,98.40
2017-11-27T20:41:21.758Z,98.30
2017-11-27T20:43:54.488Z,98.30
2017-11-27T20:46:28.353Z,98.30
2017-11-27T20:49:00.865Z,98.30
2017-11-27T20:51:33.395Z,98.30
2017-11-27T20:54:05.914Z,98.40
2017-11-27T20:56:38.973Z,98.40
2017-11-27T20:59:11.536Z,98.40
2017-11-27T21:01:44.454Z,98.40
2017-11-27T21:04:17.724Z,98.40
2017-11-27T21:06:50.271Z,98.40
2017-11-27T21:09:23.545Z,98.50
2017-11-27T21:11:56.067Z,98.40
2017-11-27T21:14:29.426Z,98.40
2017-11-27T21:17:03.445Z,98.30
2017-11-27T21:19:36.000Z,98.20
2017-11-27T21:22:08.607Z,98.20
2017-11-27T21:24:41.201Z,98.20
2017-11-27T21:27:13.956Z,98.30
2017-11-27T21:29:46.516Z,98.30
2017-11-27T21:32:19.646Z,98.30
2017-11-27T21:34:52.564Z,98.20
2017-11-27T21:37:25.695Z,98.10
2017-11-27T21:39:58.824Z,97.70
2017-11-27T21:42:31.822Z,97.50
2017-11-27T21:45:05.563Z,97.60
2017-11-27T21:47:38.881Z,97.60
2017-11-27T21:50:12.095Z,97.70
2017-11-27T21:52:45.112Z,97.70
2017-11-27T21:55:18.413Z,97.70
2017-11-27T21:57:52.198Z,97.80
2017-11-27T22:00:25.178Z,97.80
2017-11-27T22:02:58.359Z,98.00
2017-11-27T22:05:32.304Z,97.70
2017-11-27T22:08:05.255Z,97.70
2017-11-27T22:10:38.270Z,97.70
2017-11-27T22:13:11.224Z,97.60
2017-11-27T22:15:44.218Z,97.60
2017-11-27T22:18:17.195Z,97.60
2017-11-27T22:20:50.157Z,97.60
2017-11-27T22:23:23.419Z,97.70
2017-11-27T22:25:56.374Z,97.80
2017-11-27T22:28:29.398Z,97.80
2017-11-27T22:31:02.436Z,97.90
2017-11-27T22:33:35.393Z,97.90
2017-11-27T22:36:08.445Z,97.80
2017-11-27T22:38:41.584Z,97.80
2017-11-27T22:41:14.655Z,97.70
2017-11-27T22:43:47.802Z,97.70
2017-11-27T22:46:20.719Z,97.70
2017-11-27T22:48:53.748Z,97.60
2017-11-27T22:51:26.803Z,97.60
2017-11-27T22:53:59.953Z,97.60
2017-11-27T22:56:33.005Z,97.60
2017-11-27T22:59:05.978Z,97.60
2017-11-27T23:01:39.338Z,97.60
2017-11-27T23:04:12.481Z,97.60
2017-11-27T23:06:45.431Z,97.70
2017-11-27T23:09:19.199Z,97.70
2017-11-27T23:11:53.007Z,97.80
2017-11-27T23:14:26.119Z,97.80
2017-11-27T23:16:59.240Z,97.90
2017-11-27T23:19:32.565Z,97.90
2017-11-27T23:22:05.480Z,98.10
2017-11-27T23:24:39.388Z,98.30
2017-11-27T23:27:12.384Z,98.30
2017-11-27T23:29:45.510Z,98.40
2017-11-27T23:32:18.470Z,98.50
2017-11-27T23:34:52.329Z,98.70
2017-11-27T23:37:25.330Z,98.70
2017-11-27T23:39:59.170Z,98.80
2017-11-27T23:42:32.185Z,98.80
2017-11-27T23:45:05.271Z,98.80
2017-11-27T23:47:38.534Z,98.90
2017-11-27T23:50:13.347Z,99.20
2017-11-27T23:52:46.452Z,98.80
2017-11-27T23:55:19.667Z,98.80
2017-11-27T23:57:52.768Z,98.80
